Yining, China
Current Conditions -  °F | °C
As of 5:00 AM on Wednesday 26 Nov 2014 (Local Time) from UAAA Reporting Station
Broken Clouds Broken Clouds  
Wind Chill:   Ceiling: 400
Heat Index: 10°   Visibility: 6mi
Dew Point:   Wind: 4mph
Humidity: 85%   Direction: 40°NE
Pressure: 30.53"   Gusts: NA
Location:  43.9°N, 81.35°E
Report Text: UAAA 252100Z 04002MPS 9999 BKN004 M12/M14 Q1034 R05L/91//37R05R/4/0540 TEMPO 0400 FZFG VV003 RMK QBB130
Loading
Personal Weather Stations






























Interactive Weather Map New forecast layout! Learn more

10-Day Weather Forecast

Advertisements
Track Severe Weather on mobile